createdAt,value
2019-04-05T00:00:40.622Z,43.63
2019-04-05T00:03:10.092Z,46.73
2019-04-05T00:05:40.429Z,42.83
2019-04-05T00:08:11.330Z,43.93
2019-04-05T00:10:40.758Z,46.20
2019-04-05T00:13:11.782Z,44.83
2019-04-05T00:15:41.315Z,45.00
2019-04-05T00:18:13.281Z,44.20
2019-04-05T00:20:45.020Z,47.23
2019-04-05T00:23:14.524Z,48.25
2019-04-05T00:25:44.989Z,44.37
2019-04-05T00:28:16.109Z,46.65
2019-04-05T00:30:46.728Z,49.20
2019-04-05T00:33:17.322Z,47.75
2019-04-05T00:35:48.201Z,49.53
2019-04-05T00:38:18.737Z,50.58
2019-04-05T00:40:48.242Z,46.57
2019-04-05T00:43:17.699Z,46.90
2019-04-05T00:45:48.554Z,49.53
2019-04-05T00:48:20.442Z,51.20
2019-04-05T00:50:50.159Z,50.07
2019-04-05T00:53:19.609Z,50.88
2019-04-05T00:55:50.226Z,52.33
2019-04-05T00:58:20.964Z,52.50
2019-04-05T01:00:51.463Z,52.20
2019-04-05T01:03:20.871Z,51.67
2019-04-05T01:05:50.908Z,53.50
2019-04-05T01:08:20.326Z,53.33
2019-04-05T01:10:49.730Z,53.03
2019-04-05T01:13:21.172Z,57.48
2019-04-05T01:15:50.684Z,59.77
2019-04-05T01:18:20.176Z,56.93
2019-04-05T01:20:51.905Z,56.43
2019-04-05T01:23:24.012Z,57.73
2019-04-05T01:25:56.762Z,56.67
2019-04-05T01:28:29.786Z,56.10
2019-04-05T01:30:59.258Z,56.40
2019-04-05T01:33:31.260Z,58.97
2019-04-05T01:36:03.844Z,57.27
2019-04-05T01:38:36.222Z,56.53
2019-04-05T01:41:06.083Z,58.33
2019-04-05T01:43:36.768Z,58.03
2019-04-05T01:46:08.948Z,59.83
2019-04-05T01:48:40.665Z,57.83
2019-04-05T01:51:11.578Z,57.30
2019-04-05T01:53:40.983Z,57.67
2019-04-05T01:56:10.657Z,56.43
2019-04-05T01:58:40.111Z,56.27
2019-04-05T02:01:12.096Z,54.53
2019-04-05T02:03:41.850Z,56.77
2019-04-05T02:06:11.252Z,54.83
2019-04-05T02:08:41.223Z,57.47
2019-04-05T02:11:12.122Z,55.90
2019-04-05T02:13:41.525Z,56.07
2019-04-05T02:16:13.493Z,55.37
2019-04-05T02:18:46.372Z,56.73
2019-04-05T02:21:17.619Z,56.50
2019-04-05T02:23:47.423Z,59.18
2019-04-05T02:26:16.997Z,54.15
2019-04-05T02:28:47.947Z,56.20
2019-04-05T02:31:19.289Z,56.70
2019-04-05T02:33:50.490Z,55.67
2019-04-05T02:36:21.545Z,55.67
2019-04-05T02:38:52.057Z,54.23
2019-04-05T02:41:24.525Z,51.53
2019-04-05T02:43:56.948Z,51.93
2019-04-05T02:46:29.385Z,53.13
2019-04-05T02:49:01.645Z,52.27
2019-04-05T02:51:34.574Z,51.50
2019-04-05T02:54:04.919Z,56.13
2019-04-05T02:56:36.776Z,54.77
2019-04-05T02:59:07.481Z,52.70
2019-04-05T03:01:39.326Z,53.90
2019-04-05T03:04:11.113Z,52.27
2019-04-05T03:06:42.253Z,51.47
2019-04-05T03:09:12.969Z,55.20
2019-04-05T03:11:44.180Z,51.73
2019-04-05T03:14:15.051Z,52.47
2019-04-05T03:16:47.415Z,48.95
2019-04-05T03:19:21.040Z,49.63
2019-04-05T03:21:58.479Z,53.63
2019-04-05T03:24:32.094Z,51.97
2019-04-05T03:27:12.262Z,54.97
2019-04-05T03:29:43.108Z,53.90
2019-04-05T03:32:15.954Z,51.07
2019-04-05T03:34:46.027Z,54.08
2019-04-05T03:37:16.246Z,53.03
2019-04-05T03:39:46.386Z,54.10
2019-04-05T03:42:18.405Z,52.17
2019-04-05T03:44:48.913Z,52.70
2019-04-05T03:47:21.122Z,53.00
2019-04-05T03:49:51.044Z,52.90
2019-04-05T03:52:22.470Z,53.07
2019-04-05T03:54:53.143Z,53.27
2019-04-05T03:57:25.843Z,54.57
2019-04-05T03:59:56.691Z,56.70
2019-04-05T04:02:26.406Z,57.55
2019-04-05T04:04:56.615Z,60.63
2019-04-05T04:07:26.110Z,57.50
2019-04-05T04:09:55.939Z,59.10
2019-04-05T04:12:25.901Z,56.60
2019-04-05T04:14:57.611Z,57.03
2019-04-05T04:17:27.261Z,58.60
2019-04-05T04:19:57.339Z,58.98
2019-04-05T04:22:31.493Z,57.73
2019-04-05T04:25:02.684Z,54.47
2019-04-05T04:27:34.365Z,56.37
2019-04-05T04:30:03.972Z,58.70
2019-04-05T04:32:33.461Z,57.73
2019-04-05T04:35:03.816Z,58.77
2019-04-05T04:37:33.189Z,55.77
2019-04-05T04:40:04.274Z,58.60
2019-04-05T04:42:34.034Z,56.63
2019-04-05T04:45:11.945Z,57.43
2019-04-05T04:47:36.987Z,57.70
2019-04-05T04:50:08.148Z,55.40
2019-04-05T04:52:38.697Z,54.03
2019-04-05T04:55:11.270Z,55.07
2019-04-05T04:57:41.169Z,52.03
2019-04-05T05:00:10.894Z,51.55
2019-04-05T05:02:41.761Z,51.88
2019-04-05T05:05:12.176Z,50.90
2019-04-05T05:07:41.937Z,51.87
2019-04-05T05:10:11.619Z,55.13
2019-04-05T05:12:42.925Z,51.13
2019-04-05T05:15:13.042Z,52.30
2019-04-05T05:17:44.082Z,57.73
2019-04-05T05:20:15.163Z,56.77
2019-04-05T05:22:47.209Z,53.43
2019-04-05T05:25:17.437Z,54.73
2019-04-05T05:27:48.992Z,55.25
2019-04-05T05:30:18.513Z,55.13
2019-04-05T05:32:47.999Z,55.58
2019-04-05T05:35:21.132Z,56.13
2019-04-05T05:37:50.899Z,59.00
2019-04-05T05:40:34.095Z,57.70
2019-04-05T05:42:53.136Z,57.97
2019-04-05T05:45:24.084Z,55.60
2019-04-05T05:47:53.652Z,54.43
2019-04-05T05:50:23.363Z,55.90
2019-04-05T05:52:54.400Z,53.60
2019-04-05T05:55:23.907Z,54.63
2019-04-05T05:57:58.529Z,55.30
2019-04-05T06:00:31.073Z,56.33
2019-04-05T06:03:01.847Z,54.23
2019-04-05T06:05:31.669Z,56.17
2019-04-05T06:08:01.596Z,54.33
2019-04-05T06:10:33.749Z,51.40
2019-04-05T06:13:07.259Z,54.50
2019-04-05T06:15:37.558Z,51.87
2019-04-05T06:18:07.029Z,55.47
2019-04-05T06:20:36.706Z,54.07
2019-04-05T06:23:08.551Z,57.53
2019-04-05T06:25:37.978Z,53.87
2019-04-05T06:28:08.613Z,52.27
2019-04-05T06:30:38.062Z,56.10
2019-04-05T06:33:09.372Z,54.30
2019-04-05T06:35:39.177Z,55.83
2019-04-05T06:38:10.339Z,55.97
2019-04-05T06:40:41.410Z,56.60
2019-04-05T06:43:12.206Z,55.63
2019-04-05T06:45:44.409Z,54.57
2019-04-05T06:48:19.594Z,56.47
2019-04-05T06:50:47.262Z,56.93
2019-04-05T06:53:16.596Z,54.87
2019-04-05T06:55:46.035Z,55.00
2019-04-05T06:58:19.731Z,58.30
2019-04-05T07:00:57.070Z,54.70
2019-04-05T07:03:21.668Z,52.08
2019-04-05T07:05:52.534Z,58.60
2019-04-05T07:08:23.677Z,58.63
2019-04-05T07:10:53.184Z,53.25
2019-04-05T07:13:23.935Z,55.73
2019-04-05T07:15:54.437Z,52.58
2019-04-05T07:18:33.990Z,51.47
2019-04-05T07:20:57.875Z,52.37
2019-04-05T07:23:28.064Z,50.87
2019-04-05T07:26:00.523Z,55.87
2019-04-05T07:28:31.459Z,51.13
2019-04-05T07:31:02.106Z,51.57
2019-04-05T07:33:31.706Z,52.17
2019-04-05T07:36:04.295Z,51.20
2019-04-05T07:38:35.685Z,52.37
2019-04-05T07:41:07.664Z,55.60
2019-04-05T07:43:37.298Z,53.17
2019-04-05T07:46:06.906Z,55.43
2019-04-05T07:48:44.651Z,53.47
2019-04-05T07:51:07.816Z,56.90
2019-04-05T07:53:37.221Z,51.43
2019-04-05T07:56:09.787Z,51.53
2019-04-05T07:58:39.442Z,54.80
2019-04-05T08:01:09.211Z,51.80
2019-04-05T08:03:38.992Z,52.63
2019-04-05T08:06:08.715Z,52.47
2019-04-05T08:08:46.827Z,54.47
2019-04-05T08:11:17.064Z,49.93
2019-04-05T08:13:49.015Z,53.58
2019-04-05T08:16:18.641Z,52.70
2019-04-05T08:18:57.538Z,54.43
2019-04-05T08:21:22.921Z,53.05
2019-04-05T08:23:52.373Z,49.95
2019-04-05T08:26:22.761Z,52.90
2019-04-05T08:28:52.797Z,52.48
2019-04-05T08:31:22.247Z,50.43
2019-04-05T08:33:51.757Z,50.83
2019-04-05T08:36:23.352Z,51.37
2019-04-05T08:38:54.625Z,50.17
2019-04-05T08:41:25.611Z,52.17
2019-04-05T08:43:55.358Z,50.33
2019-04-05T08:46:27.766Z,52.33
2019-04-05T08:49:10.053Z,50.50
2019-04-05T08:51:31.298Z,50.40
2019-04-05T08:54:02.638Z,51.50
2019-04-05T08:56:32.296Z,52.57
2019-04-05T08:59:03.247Z,51.07
2019-04-05T09:01:32.764Z,55.43
2019-04-05T09:04:03.711Z,51.33
2019-04-05T09:06:35.162Z,50.37
2019-04-05T09:09:07.231Z,51.93
2019-04-05T09:11:37.963Z,50.03
2019-04-05T09:14:07.583Z,49.97
2019-04-05T09:16:38.812Z,51.87
2019-04-05T09:19:22.776Z,51.87
2019-04-05T09:21:41.632Z,51.77
2019-04-05T09:24:11.180Z,50.27
2019-04-05T09:26:41.208Z,51.58
2019-04-05T09:29:11.321Z,52.67
2019-04-05T09:31:41.061Z,52.88
2019-04-05T09:34:11.092Z,53.30
2019-04-05T09:36:44.616Z,54.70
2019-04-05T09:39:15.877Z,51.57
2019-04-05T09:41:45.378Z,51.27
2019-04-05T09:44:15.268Z,51.57
2019-04-05T09:46:50.984Z,49.40
2019-04-05T09:49:21.117Z,49.20
2019-04-05T09:51:51.817Z,51.07
2019-04-05T09:54:21.404Z,50.07
2019-04-05T09:56:56.587Z,49.57
2019-04-05T09:59:25.159Z,50.63
2019-04-05T10:01:54.673Z,52.00
2019-04-05T10:04:31.131Z,50.37
2019-04-05T10:06:59.629Z,51.57
2019-04-05T10:09:30.785Z,50.28
2019-04-05T10:12:00.616Z,52.30
2019-04-05T10:14:30.361Z,52.17
2019-04-05T10:16:59.906Z,52.07
2019-04-05T10:19:31.503Z,53.67
2019-04-05T10:22:01.135Z,50.03
2019-04-05T10:24:33.152Z,52.33
2019-04-05T10:27:02.765Z,52.03
2019-04-05T10:29:33.873Z,50.63
2019-04-05T10:32:03.416Z,51.33
2019-04-05T10:34:32.994Z,51.10
2019-04-05T10:37:04.579Z,51.97
2019-04-05T10:39:34.226Z,53.83
2019-04-05T10:42:15.917Z,53.00
2019-04-05T10:44:42.611Z,52.03
2019-04-05T10:47:13.124Z,52.10
2019-04-05T10:49:43.582Z,51.80
2019-04-05T10:52:13.321Z,49.50
2019-04-05T10:54:44.314Z,52.43
2019-04-05T10:57:14.779Z,52.30
2019-04-05T10:59:45.595Z,50.80
2019-04-05T11:02:15.043Z,51.00
2019-04-05T11:04:46.358Z,52.80
2019-04-05T11:07:15.840Z,51.27
2019-04-05T11:09:53.538Z,50.98
2019-04-05T11:12:25.419Z,51.33
2019-04-05T11:14:56.975Z,52.80
2019-04-05T11:17:27.382Z,53.00
2019-04-05T11:19:56.803Z,54.93
2019-04-05T11:22:26.368Z,53.77
2019-04-05T11:24:57.689Z,51.98
2019-04-05T11:27:27.386Z,52.25
2019-04-05T11:29:59.253Z,52.00
2019-04-05T11:32:28.851Z,51.77
2019-04-05T11:34:59.521Z,52.07
2019-04-05T11:37:29.475Z,48.10
2019-04-05T11:39:59.189Z,51.53
2019-04-05T11:42:29.468Z,52.57
2019-04-05T11:45:01.679Z,52.60
2019-04-05T11:47:32.367Z,55.90
2019-04-05T11:50:10.547Z,52.67
2019-04-05T11:52:40.159Z,51.83
2019-04-05T11:55:09.574Z,53.55
2019-04-05T11:57:41.463Z,52.93
2019-04-05T12:00:18.838Z,53.30
2019-04-05T12:02:52.999Z,52.07
2019-04-05T12:05:26.957Z,54.45
2019-04-05T12:07:58.577Z,55.80
2019-04-05T12:10:27.887Z,51.75
2019-04-05T12:12:58.734Z,55.40
2019-04-05T12:15:28.435Z,55.63
2019-04-05T12:17:59.374Z,53.33
2019-04-05T12:20:30.745Z,54.70
2019-04-05T12:23:03.812Z,54.27
2019-04-05T12:25:34.503Z,56.27
2019-04-05T12:28:06.986Z,56.07
2019-04-05T12:30:38.383Z,52.57
2019-04-05T12:33:14.345Z,54.53
2019-04-05T12:35:41.765Z,56.03
2019-04-05T12:38:13.439Z,56.00
2019-04-05T12:40:43.080Z,55.87
2019-04-05T12:43:13.628Z,57.77
2019-04-05T12:45:44.653Z,55.07
2019-04-05T12:48:16.007Z,57.50
2019-04-05T12:50:47.157Z,55.03
2019-04-05T12:53:16.795Z,54.60
2019-04-05T12:55:47.234Z,56.28
2019-04-05T12:58:16.783Z,56.88
2019-04-05T13:00:47.773Z,55.80
2019-04-05T13:03:20.850Z,58.47
2019-04-05T13:05:51.596Z,52.63
2019-04-05T13:08:24.862Z,57.00
2019-04-05T13:10:56.176Z,54.15
2019-04-05T13:13:27.863Z,55.13
2019-04-05T13:15:59.460Z,58.50
2019-04-05T13:18:31.549Z,59.47
2019-04-05T13:21:09.385Z,56.17
2019-04-05T13:23:35.970Z,57.33
2019-04-05T13:26:11.472Z,55.30
2019-04-05T13:28:40.076Z,52.70
2019-04-05T13:31:11.747Z,56.13
2019-04-05T13:33:42.882Z,55.73
2019-04-05T13:36:12.787Z,56.43
2019-04-05T13:38:54.621Z,58.13
2019-04-05T13:41:19.074Z,61.55
2019-04-05T13:43:49.828Z,62.93
2019-04-05T13:46:22.203Z,60.90
2019-04-05T13:48:57.308Z,63.42
2019-04-05T13:51:30.488Z,64.97
2019-04-05T13:53:58.392Z,64.13
2019-04-05T13:56:29.604Z,63.40
2019-04-05T13:59:01.041Z,67.45
2019-04-05T14:01:30.727Z,67.93
2019-04-05T14:04:02.150Z,85.20
2019-04-05T14:06:32.635Z,69.20
2019-04-05T14:09:03.353Z,65.93
2019-04-05T14:11:34.371Z,63.43
2019-04-05T14:14:06.823Z,66.60
2019-04-05T14:16:38.385Z,66.53
2019-04-05T14:19:08.249Z,63.33
2019-04-05T14:21:40.848Z,66.33
2019-04-05T14:24:11.116Z,62.17
2019-04-05T14:26:43.588Z,67.57
2019-04-05T14:29:13.257Z,65.53
2019-04-05T14:31:44.192Z,68.93
2019-04-05T14:34:13.692Z,63.60
2019-04-05T14:36:45.109Z,62.00
2019-04-05T14:39:16.660Z,61.23
2019-04-05T14:41:46.073Z,61.13
2019-04-05T14:44:15.741Z,64.97
2019-04-05T14:46:45.586Z,59.23
2019-04-05T14:49:16.126Z,59.63
2019-04-05T14:51:53.908Z,61.43
2019-04-05T14:54:23.527Z,60.37
2019-04-05T14:56:57.309Z,59.47
2019-04-05T14:59:28.779Z,62.57
2019-04-05T15:01:59.679Z,60.20
2019-04-05T15:04:29.084Z,64.80
2019-04-05T15:07:01.210Z,63.33
2019-04-05T15:09:31.747Z,61.75
2019-04-05T15:12:01.140Z,62.63
2019-04-05T15:14:30.561Z,61.70
2019-04-05T15:17:01.897Z,64.10
2019-04-05T15:19:31.591Z,60.80
2019-04-05T15:22:06.094Z,63.80
2019-04-05T15:24:32.681Z,60.33
2019-04-05T15:27:03.236Z,62.17
2019-04-05T15:29:35.633Z,61.97
2019-04-05T15:32:05.714Z,62.40
2019-04-05T15:34:35.119Z,60.93
2019-04-05T15:37:06.361Z,63.87
2019-04-05T15:39:36.090Z,59.93
2019-04-05T15:42:05.881Z,64.83
2019-04-05T15:44:35.357Z,65.10
2019-04-05T15:47:04.931Z,64.35
2019-04-05T15:49:36.874Z,65.33
2019-04-05T15:52:18.005Z,58.87
2019-04-05T15:54:38.954Z,59.37
2019-04-05T15:57:09.522Z,57.63
2019-04-05T15:59:41.452Z,56.42
2019-04-05T16:02:11.118Z,57.63
2019-04-05T16:04:40.508Z,59.07
2019-04-05T16:07:09.933Z,55.03
2019-04-05T16:09:39.606Z,57.07
2019-04-05T16:12:10.184Z,60.67
2019-04-05T16:14:39.694Z,60.07
2019-04-05T16:17:12.518Z,57.23
2019-04-05T16:19:42.413Z,54.83
2019-04-05T16:22:13.537Z,57.10
2019-04-05T16:24:43.213Z,57.13
2019-04-05T16:27:14.493Z,55.37
2019-04-05T16:29:45.863Z,55.83
2019-04-05T16:32:17.269Z,55.60
2019-04-05T16:34:48.203Z,53.07
2019-04-05T16:37:17.669Z,54.53
2019-04-05T16:39:50.323Z,51.60
2019-04-05T16:42:19.690Z,50.23
2019-04-05T16:44:50.130Z,49.10
2019-04-05T16:47:21.363Z,47.63
2019-04-05T16:49:52.063Z,47.95
2019-04-05T16:52:24.492Z,48.30
2019-04-05T16:54:54.201Z,49.55
2019-04-05T16:57:24.988Z,47.75
2019-04-05T16:59:54.395Z,49.67
2019-04-05T17:02:26.604Z,50.07
2019-04-05T17:04:57.117Z,48.25
2019-04-05T17:07:27.688Z,47.73
2019-04-05T17:09:58.624Z,46.73
2019-04-05T17:12:29.870Z,45.35
2019-04-05T17:14:59.314Z,45.30
2019-04-05T17:17:29.317Z,47.53
2019-04-05T17:19:58.748Z,43.97
2019-04-05T17:22:28.249Z,48.73
2019-04-05T17:24:59.893Z,45.12
2019-04-05T17:27:29.287Z,48.40
2019-04-05T17:30:00.397Z,44.98
2019-04-05T17:32:31.367Z,47.77
2019-04-05T17:35:00.853Z,46.53
2019-04-05T17:37:30.235Z,44.40
2019-04-05T17:40:00.703Z,45.12
2019-04-05T17:42:30.092Z,43.57
2019-04-05T17:44:59.711Z,43.92
2019-04-05T17:47:29.248Z,45.10
2019-04-05T17:49:58.620Z,46.50
2019-04-05T17:52:30.605Z,44.48
2019-04-05T17:55:00.107Z,45.80
2019-04-05T17:57:29.913Z,48.17
2019-04-05T18:00:01.082Z,47.90
2019-04-05T18:02:30.578Z,45.30
2019-04-05T18:05:01.835Z,45.90
2019-04-05T18:07:34.410Z,45.80
2019-04-05T18:10:05.462Z,46.90
2019-04-05T18:12:34.915Z,46.93
2019-04-05T18:15:05.921Z,46.13
2019-04-05T18:17:35.427Z,46.73
2019-04-05T18:20:06.275Z,45.87
2019-04-05T18:22:35.875Z,48.07
2019-04-05T18:25:06.705Z,45.33
2019-04-05T18:27:36.121Z,43.60
2019-04-05T18:30:07.933Z,44.07
2019-04-05T18:32:37.657Z,45.25
2019-04-05T18:35:08.717Z,47.37
2019-04-05T18:37:39.540Z,48.80
2019-04-05T18:40:09.705Z,47.07
2019-04-05T18:42:40.367Z,48.73
2019-04-05T18:45:11.671Z,45.83
2019-04-05T18:47:43.142Z,45.10
2019-04-05T18:50:15.510Z,45.90
2019-04-05T18:52:45.922Z,48.27
2019-04-05T18:55:16.694Z,46.07
2019-04-05T18:57:47.203Z,49.00
2019-04-05T19:00:17.445Z,47.00
2019-04-05T19:02:47.944Z,45.53
2019-04-05T19:05:17.566Z,46.13
2019-04-05T19:07:47.034Z,46.70
2019-04-05T19:10:18.231Z,63.37
2019-04-05T19:12:47.778Z,51.55
2019-04-05T19:15:17.406Z,45.67
2019-04-05T19:17:49.582Z,47.83
2019-04-05T19:20:20.882Z,45.63
2019-04-05T19:22:50.482Z,47.10
2019-04-05T19:25:20.222Z,46.67
2019-04-05T19:27:49.729Z,47.78
2019-04-05T19:48:41.784Z,47.00
2019-04-05T19:50:43.337Z,43.73
2019-04-05T19:53:13.947Z,45.30
2019-04-05T19:55:45.515Z,43.13
2019-04-05T19:58:16.762Z,45.77
2019-04-05T20:00:48.224Z,44.50
2019-04-05T20:03:17.776Z,43.20
2019-04-05T20:05:47.174Z,42.40
2019-04-05T20:08:16.580Z,44.23
2019-04-05T20:10:46.237Z,42.97
2019-04-05T20:13:15.656Z,42.53
2019-04-05T20:15:45.082Z,42.17
2019-04-05T20:18:14.803Z,42.03
2019-04-05T20:20:44.375Z,44.13
2019-04-05T20:23:14.286Z,41.93
2019-04-05T20:25:43.922Z,40.57
2019-04-05T20:28:13.335Z,42.23
2019-04-05T20:30:43.484Z,43.40
2019-04-05T20:33:13.132Z,43.13
2019-04-05T20:35:43.115Z,41.63
2019-04-05T20:38:13.157Z,42.70
2019-04-05T20:40:43.179Z,40.90
2019-04-05T20:43:13.220Z,40.35
2019-04-05T20:45:43.091Z,40.57
2019-04-05T20:48:13.224Z,40.00
2019-04-05T20:50:43.109Z,42.73
2019-04-05T20:53:13.046Z,39.03
2019-04-05T20:55:43.457Z,42.40
2019-04-05T20:58:13.145Z,41.17
2019-04-05T21:00:43.095Z,42.07
2019-04-05T21:03:13.437Z,43.50
2019-04-05T21:05:44.270Z,44.27
2019-04-05T21:08:13.685Z,42.20
2019-04-05T21:10:43.372Z,43.90
2019-04-05T21:13:13.285Z,40.73
2019-04-05T21:15:44.623Z,41.93
2019-04-05T21:18:14.133Z,44.07
2019-04-05T21:20:43.611Z,44.37
2019-04-05T21:23:13.281Z,43.77
2019-04-05T21:25:43.484Z,44.20
2019-04-05T21:28:13.208Z,41.35
2019-04-05T21:30:43.133Z,43.33
2019-04-05T21:33:14.384Z,44.67
2019-04-05T21:35:45.791Z,44.23
2019-04-05T21:38:15.225Z,42.03
2019-04-05T21:40:45.053Z,43.50
2019-04-05T21:43:16.292Z,43.87
2019-04-05T21:45:46.769Z,43.43
2019-04-05T21:48:16.515Z,42.37
2019-04-05T21:50:46.393Z,43.03
2019-04-05T21:53:16.906Z,42.43
2019-04-05T21:55:46.792Z,44.40
2019-04-05T21:58:18.313Z,44.05
2019-04-05T22:00:55.012Z,43.63
2019-04-05T22:03:24.524Z,43.83
2019-04-05T22:05:53.947Z,46.20
2019-04-05T22:08:24.912Z,45.77
2019-04-05T22:10:54.478Z,44.80
2019-04-05T22:13:23.904Z,47.13
2019-04-05T22:15:53.614Z,46.50
2019-04-05T22:18:23.027Z,45.57
2019-04-05T22:20:52.459Z,47.60
2019-04-05T22:23:21.951Z,48.93
2019-04-05T22:25:51.361Z,47.25
2019-04-05T22:28:20.943Z,49.67
2019-04-05T22:30:50.533Z,44.90
2019-04-05T22:33:20.205Z,47.10
2019-04-05T22:35:49.928Z,46.83
2019-04-05T22:38:19.637Z,45.77
2019-04-05T22:40:49.216Z,44.90
2019-04-05T22:43:18.712Z,45.90
2019-04-05T22:45:48.338Z,45.63
2019-04-05T22:48:17.933Z,43.13
2019-04-05T22:50:47.345Z,43.63
2019-04-05T22:53:16.922Z,44.90
2019-04-05T22:55:46.366Z,45.37
2019-04-05T22:58:15.818Z,43.17
2019-04-05T23:00:45.468Z,45.20
2019-04-05T23:03:14.847Z,44.90
2019-04-05T23:05:44.292Z,43.03
2019-04-05T23:08:13.904Z,43.63
2019-04-05T23:10:43.429Z,42.57
2019-04-05T23:13:13.500Z,43.63
2019-04-05T23:15:43.680Z,44.13
2019-04-05T23:18:13.447Z,47.57
2019-04-05T23:20:43.564Z,43.13
2019-04-05T23:23:13.890Z,44.10
2019-04-05T23:25:43.500Z,43.40
2019-04-05T23:28:13.524Z,44.93
2019-04-05T23:30:43.703Z,45.48
2019-04-05T23:33:14.492Z,43.90
2019-04-05T23:35:43.944Z,45.33
2019-04-05T23:38:15.176Z,45.38
2019-04-05T23:40:44.878Z,43.67
2019-04-05T23:43:15.583Z,44.93
2019-04-05T23:45:45.017Z,43.20
2019-04-05T23:48:14.394Z,46.92
2019-04-05T23:50:45.245Z,47.37
2019-04-05T23:53:14.934Z,47.80
2019-04-05T23:55:44.296Z,45.57
2019-04-05T23:58:13.674Z,45.23
